Time;durP1;ratioP1;P1;durP2;ratioP2;P2;SDS_P1;SDS_P2;PMS_P1;PMS_P2;Temp;Humidity;BMP_temperature;BMP_pressure;BME280_temperature;BME280_humidity;BME280_pressure;Samples;Min_cycle;Max_cycle;Signal;HPM_P1;HPM_P2
2022/01/30 12:16:45;;;;;;;11.20;3.60;;;;;;;2.97;81.97;97211.62;423772;1296;637363;-41
2022/01/30 12:26:52;;;;;;;18.80;5.40;;;;;;;3.05;82.46;97233.00;426645;1276;5364588;-42
2022/01/30 12:36:59;;;;;;;12.20;3.50;;;;;;;3.01;83.22;97255.77;431031;1277;108863;-40
2022/01/30 12:47:07;;;;;;;12.10;2.70;;;;;;;3.01;83.73;97275.70;430641;1277;109213;-41
2022/01/30 12:57:15;;;;;;;10.80;2.80;;;;;;;2.92;84.59;97288.56;430467;1277;94856;-40
2022/01/30 13:07:22;;;;;;;8.70;2.60;;;;;;;2.78;85.61;97320.67;430549;1277;108374;-41
2022/01/30 13:17:31;;;;;;;8.70;2.60;;;;;;;2.68;86.48;97343.07;430444;1277;108696;-40
2022/01/30 13:27:38;;;;;;;15.70;2.10;;;;;;;2.61;87.31;97361.14;430400;1277;108984;-39
2022/01/30 13:37:45;;;;;;;10.60;2.20;;;;;;;2.60;87.78;97386.64;430544;1277;95942;-41
2022/01/30 13:57:58;;;;;;;17.80;3.90;;;;;;;2.56;88.11;97412.94;430366;1278;109845;-41
2022/01/30 14:08:03;;;;;;;28.20;5.90;;;;;;;2.58;88.38;97431.36;430524;1277;95661;-39
2022/01/30 14:18:26;;;;;;;20.80;5.30;;;;;;;2.61;88.45;97437.91;430029;1279;108931;-40
2022/01/30 14:28:34;;;;;;;31.10;10.00;;;;;;;2.63;88.17;97448.70;430405;1277;108950;-41
2022/01/30 14:48:49;;;;;;;31.40;7.00;;;;;;;2.78;86.93;97467.38;430856;1277;109642;-40
2022/01/30 14:58:57;;;;;;;21.30;6.20;;;;;;;2.94;85.80;97486.83;430736;1277;108788;-39
2022/01/30 15:09:04;;;;;;;18.40;5.10;;;;;;;3.02;84.15;97508.98;430715;1276;95732;-41
2022/01/30 15:19:13;;;;;;;24.00;5.10;;;;;;;3.13;83.18;97521.00;430579;1275;97063;-40
2022/01/30 15:29:21;;;;;;;23.60;5.40;;;;;;;3.20;81.67;97528.42;430856;1276;107821;-41
2022/01/30 15:39:29;;;;;;;14.90;3.90;;;;;;;3.26;80.92;97550.09;432317;1273;108484;-40
2022/01/30 15:49:50;;;;;;;26.70;6.60;;;;;;;3.28;79.95;97570.38;432031;1274;95690;-40
2022/01/30 15:59:59;;;;;;;16.20;4.30;;;;;;;3.26;79.43;97591.98;432247;1274;110204;-41
2022/01/30 16:10:09;;;;;;;17.60;5.60;;;;;;;3.26;79.38;97606.89;432297;1274;109328;-40
2022/01/30 16:30:24;;;;;;;28.70;7.60;;;;;;;3.28;78.41;97623.19;432207;1274;95242;-41
2022/01/30 16:40:32;;;;;;;27.20;6.50;;;;;;;3.27;77.94;97650.48;432242;1274;95489;-40
2022/01/30 16:50:39;;;;;;;25.50;6.90;;;;;;;3.32;76.88;97666.32;431952;1274;108049;-39
2022/01/30 17:00:46;;;;;;;24.10;6.10;;;;;;;3.27;76.37;97678.39;433163;1271;108629;-40
2022/01/30 17:10:57;;;;;;;29.00;4.50;;;;;;;3.32;75.82;97677.70;433334;1271;108976;-40
2022/01/30 17:21:02;;;;;;;;;;;;;;;3.29;75.05;97689.39;433135;1269;97106;-40
2022/01/30 17:31:09;;;;;;;21.70;6.40;;;;;;;3.23;74.90;97726.43;432945;1270;109804;-40
2022/01/30 17:41:16;;;;;;;25.50;7.80;;;;;;;3.09;75.63;97727.27;432824;1269;108796;-41
2022/01/30 17:51:21;;;;;;;12.40;4.20;;;;;;;3.15;74.56;97745.70;433118;1269;95966;-41
2022/01/30 18:01:29;;;;;;;17.10;4.90;;;;;;;3.10;74.69;97766.88;433040;1269;95347;-41
2022/01/30 18:11:38;;;;;;;25.70;5.90;;;;;;;2.78;76.43;97775.05;432851;1269;109509;-39
2022/01/30 18:21:44;;;;;;;;;;;;;;;2.75;77.01;97782.96;433186;1269;108878;-40
2022/01/30 18:31:53;;;;;;;25.80;9.10;;;;;;;2.56;78.18;97787.65;433025;1270;96189;-39
2022/01/30 18:42:01;;;;;;;16.10;5.50;;;;;;;2.60;77.72;97790.86;432982;1271;96104;-39
2022/01/30 19:02:16;;;;;;;22.60;6.00;;;;;;;3.10;72.84;97807.99;432978;1270;108785;-39
2022/01/30 19:12:30;;;;;;;21.90;5.40;;;;;;;3.13;72.04;97815.02;432969;1271;96147;-40
2022/01/30 19:22:38;;;;;;;21.60;5.40;;;;;;;3.11;71.47;97835.75;433058;1269;95351;-41
2022/01/30 19:32:45;;;;;;;29.10;7.60;;;;;;;3.15;70.90;97846.45;432834;1271;109752;-39
2022/01/30 19:42:55;;;;;;;30.70;8.70;;;;;;;3.12;70.80;97857.59;432936;1269;107889;-43
2022/01/30 19:53:03;;;;;;;29.00;11.30;;;;;;;3.08;70.76;97864.09;432965;1270;108883;-40
2022/01/30 20:03:10;;;;;;;27.10;7.40;;;;;;;3.00;71.26;97872.88;433150;1269;95246;-40
2022/01/30 20:13:18;;;;;;;28.80;7.30;;;;;;;2.91;72.27;97876.41;432889;1271;96096;-42
2022/01/30 20:23:25;;;;;;;32.20;7.30;;;;;;;2.85;72.22;97879.85;433157;1271;109725;-41
2022/01/30 20:33:34;;;;;;;24.30;6.90;;;;;;;2.84;71.38;97893.34;432955;1270;108976;-40
2022/01/30 20:43:42;;;;;;;14.30;4.50;;;;;;;2.77;71.46;97907.30;432875;1271;108681;-39
2022/01/30 20:53:47;;;;;;;28.70;7.90;;;;;;;2.76;71.45;97913.05;433156;1269;95336;-40
2022/01/30 21:03:54;;;;;;;18.80;4.20;;;;;;;2.66;70.80;97915.05;433039;1271;96505;-40
2022/01/30 21:24:06;;;;;;;16.40;4.00;;;;;;;2.47;70.66;97936.77;433033;1271;109171;-41
2022/01/30 21:34:13;;;;;;;22.70;4.70;;;;;;;2.44;70.48;97955.84;432873;1271;108844;-41
2022/01/30 21:44:19;;;;;;;25.80;6.90;;;;;;;2.36;69.90;97969.63;432613;1271;95539;-39
2022/01/30 21:54:26;;;;;;;16.00;4.70;;;;;;;2.29;69.72;97980.66;432580;1270;109456;-40
2022/01/30 22:04:34;;;;;;;12.90;3.70;;;;;;;2.27;69.39;97988.16;433527;1267;108361;-42
2022/01/30 22:14:51;;;;;;;17.40;3.40;;;;;;;2.21;68.80;97988.70;433667;1268;108997;-40
2022/01/30 22:24:58;;;;;;;15.90;3.30;;;;;;;2.19;67.99;97987.81;433857;1268;95389;-41
2022/01/30 22:35:03;;;;;;;23.70;3.80;;;;;;;2.16;67.16;97989.71;433992;1268;95618;-40
2022/01/30 22:45:10;;;;;;;17.90;2.60;;;;;;;2.07;67.53;97988.08;433885;1267;110664;-40
2022/01/30 22:55:17;;;;;;;16.80;4.60;;;;;;;2.06;67.29;97987.08;434027;1268;108595;-40
2022/01/30 23:05:22;;;;;;;21.20;3.60;;;;;;;1.96;67.52;97989.98;434079;1268;95868;-39
2022/01/30 23:15:29;;;;;;;13.90;2.60;;;;;;;1.91;67.71;97991.11;434035;1268;96577;-39
2022/01/30 23:25:37;;;;;;;25.10;5.20;;;;;;;1.83;67.82;97983.74;433833;1267;108939;-40
2022/01/30 23:35:44;;;;;;;12.40;3.40;;;;;;;1.73;68.47;97989.34;433887;1267;108894;-40
2022/01/30 23:45:55;;;;;;;15.20;3.70;;;;;;;1.70;69.47;97994.45;433890;1267;95264;-39
2022/01/30 23:56:03;;;;;;;23.70;4.00;;;;;;;1.60;69.77;98006.38;433784;1267;109720;-41
